KCPC

Columbus County Municipal Airport

Whiteville, North Carolina, USA
METAR KCPC 141240Z AUTO 03006KT 10SM -RA SCT041 SCT049 BKN090 12/11 A3022 RMK AO2 T01150106
Observed Flight Rules
Dec-14 @ 12:40 UTC (19 minutes ago) Visual Flight Rules
Wind Visibility Clouds Conditions
30° at 6 knots 10 miles
  • Scattered at 4,100' AGL
  • Scattered at 4,900' AGL
  • Broken at 9,000' AGL
  • Light Rain
Temperatures Readings
Current 12°C / 54°F
Dewpoint 11°C / 52°F
Humidity 94%
Altimeter 30.22" Hg
Pressure 1023 hPa
Elevation 29
METAR KCPC 141240Z AUTO 03006KT 10SM -RA SCT041 SCT049 BKN090 12/11 A3022 RMK AO2 T01150106
Observed Flight Rules
Dec-14 @ 12:40 UTC
(19 minutes ago)
VFR
Wind Visibility
30° at 6 knots 10 miles
Clouds
  • Scattered at 4,100' AGL
  • Scattered at 4,900' AGL
  • Broken at 9,000' AGL
Conditions
  • Light Rain
Temperature Dewpoint
12°C / 54°F 11°C / 52°F
Humidity Altimeter Pressure
94% 30.22" Hg 1023 hPa